createdAt,value
2017-11-21T00:01:57.845Z,4.50
2017-11-21T00:04:25.918Z,4.60
2017-11-21T00:06:53.998Z,4.50
2017-11-21T00:09:22.068Z,4.60
2017-11-21T00:11:50.153Z,4.60
2017-11-21T00:14:18.993Z,4.70
2017-11-21T00:16:47.075Z,4.60
2017-11-21T00:19:15.151Z,4.70
2017-11-21T00:21:43.241Z,4.70
2017-11-21T00:24:11.313Z,4.70
2017-11-21T00:26:40.168Z,4.70
2017-11-21T00:29:08.253Z,4.70
2017-11-21T00:31:36.330Z,4.80
2017-11-21T00:34:04.401Z,4.80
2017-11-21T00:36:32.476Z,4.80
2017-11-21T00:39:00.545Z,4.80
2017-11-21T00:41:28.627Z,4.90
2017-11-21T00:43:57.468Z,4.80
2017-11-21T00:46:25.543Z,4.80
2017-11-21T00:48:53.607Z,4.80
2017-11-21T00:51:21.686Z,4.80
2017-11-21T00:53:49.784Z,4.80
2017-11-21T00:56:19.368Z,4.90
2017-11-21T00:58:47.499Z,4.90
2017-11-21T01:01:15.628Z,4.90
2017-11-21T01:03:43.773Z,4.90
2017-11-21T01:06:11.855Z,4.80
2017-11-21T01:08:39.918Z,4.80
2017-11-21T01:11:07.996Z,4.90
2017-11-21T01:13:36.105Z,4.90
2017-11-21T01:16:04.943Z,4.90
2017-11-21T01:18:33.132Z,4.90
2017-11-21T01:21:01.284Z,4.90
2017-11-21T01:23:29.368Z,4.90
2017-11-21T01:25:57.434Z,4.90
2017-11-21T01:28:25.644Z,4.90
2017-11-21T01:30:54.459Z,5.00
2017-11-21T01:33:22.593Z,4.90
2017-11-21T01:35:52.165Z,5.00
2017-11-21T01:38:20.250Z,5.00
2017-11-21T01:40:48.335Z,5.00
2017-11-21T01:43:16.413Z,5.00
2017-11-21T01:45:45.270Z,5.00
2017-11-21T01:48:13.347Z,5.00
2017-11-21T01:50:41.425Z,5.10
2017-11-21T01:53:09.607Z,5.20
2017-11-21T01:55:37.684Z,5.20
2017-11-21T01:58:05.779Z,5.20
2017-11-21T02:00:33.854Z,5.20
2017-11-21T02:03:04.862Z,5.10
2017-11-21T02:05:33.024Z,5.20
2017-11-21T02:08:01.167Z,5.20
2017-11-21T02:10:29.252Z,5.30
2017-11-21T02:12:57.321Z,5.40
2017-11-21T02:15:25.413Z,5.30
2017-11-21T02:17:53.781Z,5.40
2017-11-21T02:20:21.869Z,5.30
2017-11-21T02:22:50.700Z,5.40
2017-11-21T02:25:18.781Z,5.40
2017-11-21T02:27:46.850Z,5.40
2017-11-21T02:30:14.935Z,5.40
2017-11-21T02:32:43.027Z,5.40
2017-11-21T02:35:12.606Z,5.40
2017-11-21T02:37:40.687Z,5.40
2017-11-21T02:40:08.871Z,5.40
2017-11-21T02:42:37.136Z,5.50
2017-11-21T02:45:05.213Z,5.50
2017-11-21T02:47:33.299Z,5.50
2017-11-21T02:50:01.432Z,5.50
2017-11-21T02:52:29.513Z,5.50
2017-11-21T02:54:57.695Z,5.50
2017-11-21T02:57:25.775Z,5.50
2017-11-21T02:59:53.839Z,5.60
2017-11-21T03:02:21.911Z,5.60
2017-11-21T03:04:49.986Z,5.50
2017-11-21T03:07:18.100Z,5.60
2017-11-21T03:09:46.262Z,5.50
2017-11-21T03:12:14.332Z,5.50
2017-11-21T03:14:42.429Z,5.60
2017-11-21T03:17:10.504Z,5.50
2017-11-21T03:19:38.598Z,5.60
2017-11-21T03:22:18.559Z,5.60
2017-11-21T03:38:14.756Z,5.60
2017-11-21T03:40:42.832Z,5.60
2017-11-21T03:43:10.917Z,5.60
2017-11-21T03:45:38.987Z,5.60
2017-11-21T03:48:07.073Z,5.60
2017-11-21T03:50:35.182Z,5.60
2017-11-21T03:53:03.237Z,5.60
2017-11-21T03:55:31.325Z,5.60
2017-11-21T03:57:59.525Z,5.60
2017-11-21T04:00:27.608Z,5.60
2017-11-21T04:02:56.457Z,5.70
2017-11-21T04:05:24.531Z,5.70
2017-11-21T04:07:52.621Z,5.60
2017-11-21T04:10:20.708Z,5.70
2017-11-21T04:12:49.553Z,5.70
2017-11-21T04:15:17.645Z,5.70
2017-11-21T04:17:45.724Z,5.70
2017-11-21T04:20:13.820Z,5.70
2017-11-21T04:22:41.905Z,5.70
2017-11-21T04:25:10.034Z,5.70
2017-11-21T04:27:38.205Z,5.70
2017-11-21T04:30:07.807Z,5.70
2017-11-21T04:32:35.892Z,5.70
2017-11-21T04:35:03.979Z,5.70
2017-11-21T04:37:32.834Z,5.70
2017-11-21T04:40:00.913Z,5.70
2017-11-21T04:42:28.993Z,5.70
2017-11-21T04:44:57.849Z,5.70
2017-11-21T04:47:25.934Z,5.70
2017-11-21T04:49:54.009Z,5.70
2017-11-21T04:52:22.080Z,5.80
2017-11-21T04:54:50.177Z,5.70
2017-11-21T04:57:18.244Z,5.80
2017-11-21T04:59:47.097Z,5.80
2017-11-21T05:02:15.184Z,5.80
2017-11-21T05:04:43.263Z,5.80
2017-11-21T05:07:11.342Z,5.80
2017-11-21T05:09:40.186Z,5.80
2017-11-21T05:12:08.259Z,5.80
2017-11-21T05:14:36.335Z,5.80
2017-11-21T05:17:04.532Z,5.80
2017-11-21T05:19:32.610Z,5.80
2017-11-21T05:22:01.462Z,5.80
2017-11-21T05:24:29.541Z,5.80
2017-11-21T05:26:57.612Z,5.80
2017-11-21T05:29:25.698Z,5.80
2017-11-21T05:31:53.804Z,5.80
2017-11-21T05:34:21.886Z,5.80
2017-11-21T05:36:49.956Z,5.80
2017-11-21T05:39:18.039Z,5.80
2017-11-21T05:41:46.123Z,5.80
2017-11-21T05:44:14.230Z,5.90
2017-11-21T05:46:42.310Z,5.80
2017-11-21T05:49:11.166Z,5.80
2017-11-21T05:51:39.246Z,5.80
2017-11-21T05:54:07.340Z,5.90
2017-11-21T05:56:36.183Z,5.80
2017-11-21T05:59:04.401Z,5.80
2017-11-21T06:01:33.377Z,5.80
2017-11-21T06:04:01.595Z,5.80
2017-11-21T06:06:29.928Z,5.80
2017-11-21T06:08:58.015Z,5.90
2017-11-21T06:11:26.856Z,5.90
2017-11-21T06:13:55.051Z,5.90
2017-11-21T06:16:23.130Z,5.90
2017-11-21T06:18:51.208Z,6.00
2017-11-21T06:21:20.076Z,5.90
2017-11-21T06:23:48.142Z,5.90
2017-11-21T06:26:16.230Z,5.90
2017-11-21T06:28:44.344Z,5.90
2017-11-21T06:31:12.449Z,6.00
2017-11-21T06:33:40.536Z,6.00
2017-11-21T06:36:08.624Z,6.00
2017-11-21T06:38:36.704Z,6.00
2017-11-21T06:41:04.853Z,6.00
2017-11-21T06:43:32.941Z,6.00
2017-11-21T06:46:01.787Z,6.00
2017-11-21T06:48:29.879Z,6.00
2017-11-21T06:50:58.052Z,6.00
2017-11-21T06:53:26.140Z,6.00
2017-11-21T06:55:55.020Z,6.00
2017-11-21T06:58:23.114Z,6.00
2017-11-21T07:00:51.191Z,6.00
2017-11-21T07:03:19.280Z,6.00
2017-11-21T07:05:47.331Z,6.00
2017-11-21T07:08:15.416Z,6.00
2017-11-21T07:10:43.510Z,6.00
2017-11-21T07:13:11.582Z,6.00
2017-11-21T07:15:39.652Z,6.00
2017-11-21T07:18:07.787Z,5.90
2017-11-21T07:20:35.878Z,5.90
2017-11-21T07:23:03.968Z,5.90
2017-11-21T07:25:32.068Z,6.00
2017-11-21T07:28:00.160Z,6.00
2017-11-21T07:30:28.253Z,5.90
2017-11-21T07:32:56.316Z,6.00
2017-11-21T07:35:24.396Z,5.90
2017-11-21T07:37:52.468Z,6.00
2017-11-21T07:40:20.553Z,6.00
2017-11-21T07:42:48.626Z,6.00
2017-11-21T07:45:16.701Z,6.00
2017-11-21T07:47:44.781Z,6.00
2017-11-21T07:50:12.864Z,6.10
2017-11-21T07:52:40.936Z,6.00
2017-11-21T07:55:09.010Z,6.00
2017-11-21T07:57:37.090Z,6.10
2017-11-21T08:00:05.945Z,6.00
2017-11-21T08:02:34.016Z,6.00
2017-11-21T08:05:02.099Z,6.00
2017-11-21T08:07:30.177Z,6.10
2017-11-21T08:09:59.024Z,6.10
2017-11-21T08:12:27.118Z,6.10
2017-11-21T08:14:55.184Z,6.10
2017-11-21T08:17:23.272Z,6.10
2017-11-21T08:19:51.335Z,6.10
2017-11-21T08:22:19.417Z,6.00
2017-11-21T08:24:48.260Z,6.00
2017-11-21T08:27:16.340Z,6.10
2017-11-21T08:29:44.429Z,6.10
2017-11-21T08:32:12.501Z,6.10
2017-11-21T08:34:40.579Z,6.10
2017-11-21T08:37:08.665Z,6.10
2017-11-21T08:39:36.733Z,6.10
2017-11-21T08:42:05.564Z,6.10
2017-11-21T08:44:33.642Z,6.10
2017-11-21T08:47:01.713Z,6.10
2017-11-21T08:49:29.795Z,6.10
2017-11-21T08:51:57.866Z,6.10
2017-11-21T08:54:25.956Z,6.10
2017-11-21T08:56:54.017Z,6.20
2017-11-21T08:59:22.112Z,6.20
2017-11-21T09:01:50.957Z,6.10
2017-11-21T09:04:19.038Z,6.20
2017-11-21T09:06:47.117Z,6.20
2017-11-21T09:09:15.200Z,6.20
2017-11-21T09:11:43.280Z,6.20
2017-11-21T09:14:12.120Z,6.20
2017-11-21T09:16:40.204Z,6.20
2017-11-21T09:19:08.282Z,6.20
2017-11-21T09:21:36.352Z,6.20
2017-11-21T09:24:05.271Z,6.30
2017-11-21T09:26:34.112Z,6.30
2017-11-21T09:29:02.193Z,6.30
2017-11-21T09:31:30.870Z,6.30
2017-11-21T09:33:58.939Z,6.30
2017-11-21T09:36:27.045Z,6.30
2017-11-21T09:38:55.120Z,6.30
2017-11-21T09:41:23.295Z,6.40
2017-11-21T09:43:51.433Z,6.40
2017-11-21T09:46:19.671Z,6.40
2017-11-21T09:48:47.752Z,6.40
2017-11-21T09:51:15.816Z,6.40
2017-11-21T09:53:43.916Z,6.40
2017-11-21T09:56:11.984Z,6.40
2017-11-21T09:58:40.068Z,6.40
2017-11-21T10:01:08.145Z,6.40
2017-11-21T10:03:36.229Z,6.40
2017-11-21T10:06:05.064Z,6.50
2017-11-21T10:08:33.165Z,6.40
2017-11-21T10:11:01.241Z,6.50
2017-11-21T10:13:29.319Z,6.50
2017-11-21T10:15:57.392Z,6.50
2017-11-21T10:18:25.476Z,6.50
2017-11-21T10:20:54.324Z,6.60
2017-11-21T10:23:22.400Z,6.50
2017-11-21T10:25:50.495Z,6.60
2017-11-21T10:28:18.564Z,6.60
2017-11-21T10:30:46.635Z,6.60
2017-11-21T10:33:15.464Z,6.60
2017-11-21T10:35:43.550Z,6.60
2017-11-21T10:38:11.618Z,6.60
2017-11-21T10:40:39.706Z,6.60
2017-11-21T10:43:07.805Z,6.60
2017-11-21T10:45:35.864Z,6.60
2017-11-21T10:48:03.963Z,6.60
2017-11-21T10:50:32.043Z,6.60
2017-11-21T10:53:00.118Z,6.60
2017-11-21T10:55:28.213Z,6.60
2017-11-21T10:57:56.260Z,6.60
2017-11-21T11:00:24.338Z,6.60
2017-11-21T11:02:52.425Z,6.60
2017-11-21T11:05:20.498Z,6.60
2017-11-21T11:07:48.585Z,6.60
2017-11-21T11:10:16.669Z,6.60
2017-11-21T11:12:44.744Z,6.70
2017-11-21T11:15:13.592Z,6.70
2017-11-21T11:17:41.714Z,6.60
2017-11-21T11:20:09.864Z,6.70
2017-11-21T11:22:37.936Z,6.70
2017-11-21T11:25:06.020Z,6.70
2017-11-21T11:27:34.871Z,6.70
2017-11-21T11:30:02.947Z,6.70
2017-11-21T11:32:31.128Z,6.70
2017-11-21T11:35:00.712Z,6.70
2017-11-21T11:37:28.793Z,6.70
2017-11-21T11:39:57.006Z,6.70
2017-11-21T11:42:25.074Z,6.70
2017-11-21T11:44:53.943Z,6.80
2017-11-21T11:47:22.010Z,6.80
2017-11-21T11:49:50.090Z,6.80
2017-11-21T11:52:18.160Z,6.80
2017-11-21T11:54:46.232Z,6.90
2017-11-21T11:57:15.082Z,6.90
2017-11-21T11:59:43.147Z,6.90
2017-11-21T12:02:11.237Z,6.90
2017-11-21T12:04:39.305Z,6.90
2017-11-21T12:07:07.389Z,7.00
2017-11-21T12:09:35.464Z,7.00
2017-11-21T12:12:03.544Z,7.00
2017-11-21T12:14:32.395Z,7.10
2017-11-21T12:17:00.481Z,7.10
2017-11-21T12:19:28.554Z,7.10
2017-11-21T12:21:56.640Z,7.00
2017-11-21T12:24:24.709Z,7.10
2017-11-21T12:26:53.559Z,7.10
2017-11-21T12:29:21.637Z,7.00
2017-11-21T12:31:49.718Z,7.00
2017-11-21T12:34:17.804Z,7.10
2017-11-21T12:36:45.880Z,7.10
2017-11-21T12:39:14.729Z,7.10
2017-11-21T12:41:42.818Z,7.00
2017-11-21T12:44:10.890Z,7.10
2017-11-21T12:46:38.966Z,7.00
2017-11-21T12:49:07.041Z,7.00
2017-11-21T12:51:35.130Z,7.00
2017-11-21T12:54:03.964Z,7.00
2017-11-21T12:56:32.047Z,7.00
2017-11-21T12:59:00.119Z,7.00
2017-11-21T13:01:28.205Z,7.00
2017-11-21T13:03:56.289Z,7.00
2017-11-21T13:06:25.132Z,7.00
2017-11-21T13:08:53.212Z,7.00
2017-11-21T13:11:21.288Z,7.00
2017-11-21T13:13:49.372Z,7.00
2017-11-21T13:16:17.449Z,7.00
2017-11-21T13:18:45.533Z,7.00
2017-11-21T13:21:14.385Z,7.00
2017-11-21T13:23:42.478Z,7.00
2017-11-21T13:26:10.553Z,7.00
2017-11-21T13:28:38.632Z,7.00
2017-11-21T13:31:07.472Z,6.90
2017-11-21T13:33:35.546Z,6.90
2017-11-21T13:36:03.614Z,6.90
2017-11-21T13:38:31.698Z,6.90
2017-11-21T13:40:59.768Z,6.80
2017-11-21T13:43:27.849Z,6.90
2017-11-21T13:45:55.933Z,6.90
2017-11-21T13:48:24.037Z,6.90
2017-11-21T13:50:52.111Z,6.80
2017-11-21T13:53:20.176Z,6.80
2017-11-21T13:55:48.263Z,6.80
2017-11-21T13:58:16.345Z,6.80
2017-11-21T14:00:44.415Z,6.80
2017-11-21T14:03:12.493Z,6.80
2017-11-21T14:05:40.569Z,6.80
2017-11-21T14:08:08.648Z,6.80
2017-11-21T14:10:36.724Z,6.80
2017-11-21T14:13:04.797Z,6.80
2017-11-21T14:15:32.882Z,6.90
2017-11-21T14:18:01.805Z,6.80
2017-11-21T14:20:29.880Z,6.80
2017-11-21T14:22:57.953Z,6.80
2017-11-21T14:25:26.040Z,6.80
2017-11-21T14:27:54.114Z,6.80
2017-11-21T14:30:22.193Z,6.80
2017-11-21T14:32:50.267Z,6.80
2017-11-21T14:35:18.353Z,6.80
2017-11-21T14:37:46.443Z,6.80
2017-11-21T14:40:14.693Z,6.80
2017-11-21T14:42:44.300Z,6.70
2017-11-21T14:45:12.360Z,6.70
2017-11-21T14:47:40.432Z,6.80
2017-11-21T14:50:10.025Z,6.70
2017-11-21T14:52:38.105Z,6.70
2017-11-21T14:55:06.209Z,6.70
2017-11-21T14:57:34.286Z,6.80
2017-11-21T15:00:02.533Z,6.80
2017-11-21T15:02:30.645Z,6.80
2017-11-21T15:04:58.711Z,6.80
2017-11-21T15:07:26.799Z,6.80
2017-11-21T15:09:55.085Z,6.80
2017-11-21T15:12:23.165Z,6.80
2017-11-21T15:14:52.280Z,6.80
2017-11-21T15:17:20.395Z,6.80
2017-11-21T15:19:48.458Z,6.80
2017-11-21T15:22:16.564Z,6.80
2017-11-21T15:24:44.692Z,6.80
2017-11-21T15:27:12.772Z,6.90
2017-11-21T15:29:40.860Z,6.90
2017-11-21T15:32:08.940Z,6.90
2017-11-21T15:34:37.009Z,6.90
2017-11-21T15:37:05.086Z,6.90
2017-11-21T15:39:33.158Z,6.80
2017-11-21T15:42:01.244Z,6.90
2017-11-21T15:44:29.311Z,6.90
2017-11-21T15:46:57.421Z,6.90
2017-11-21T15:49:26.332Z,7.00
2017-11-21T15:51:54.532Z,6.90
2017-11-21T15:54:22.610Z,7.00
2017-11-21T15:56:50.994Z,7.00
2017-11-21T15:59:19.082Z,7.00
2017-11-21T16:01:47.256Z,6.90
2017-11-21T16:04:16.217Z,6.90
2017-11-21T16:06:44.317Z,6.90
2017-11-21T16:09:13.210Z,6.90
2017-11-21T16:11:41.472Z,6.90
2017-11-21T16:14:09.552Z,6.90
2017-11-21T16:16:37.633Z,6.90
2017-11-21T16:19:06.490Z,7.00
2017-11-21T16:21:34.561Z,7.00
2017-11-21T16:24:02.648Z,6.90
2017-11-21T16:26:30.733Z,6.90
2017-11-21T16:28:59.587Z,6.90
2017-11-21T16:31:27.660Z,6.90
2017-11-21T16:33:55.747Z,6.90
2017-11-21T16:36:23.822Z,6.90
2017-11-21T16:38:51.928Z,6.80
2017-11-21T16:41:20.002Z,6.80
2017-11-21T16:43:48.077Z,6.80
2017-11-21T16:46:16.164Z,6.80
2017-11-21T16:48:44.240Z,6.80
2017-11-21T16:51:12.324Z,6.80
2017-11-21T16:53:40.389Z,6.80
2017-11-21T16:56:08.471Z,6.80
2017-11-21T16:58:36.545Z,6.70
2017-11-21T17:01:04.629Z,6.70
2017-11-21T17:03:32.701Z,6.70
2017-11-21T17:06:00.782Z,6.60
2017-11-21T17:08:29.618Z,6.50
2017-11-21T17:10:57.724Z,6.40
2017-11-21T17:13:25.800Z,6.40
2017-11-21T17:15:54.656Z,6.30
2017-11-21T17:18:22.735Z,6.20
2017-11-21T17:20:50.815Z,6.20
2017-11-21T17:23:18.897Z,6.20
2017-11-21T17:25:46.976Z,6.10
2017-11-21T17:28:16.032Z,5.90
2017-11-21T17:30:44.326Z,5.90
2017-11-21T17:33:12.397Z,5.90
2017-11-21T17:35:40.498Z,5.80
2017-11-21T17:38:09.336Z,5.80
2017-11-21T17:40:37.425Z,5.80
2017-11-21T17:43:05.512Z,5.70
2017-11-21T17:45:34.360Z,5.70
2017-11-21T17:48:02.440Z,5.70
2017-11-21T17:50:30.541Z,5.70
2017-11-21T17:52:59.402Z,5.70
2017-11-21T17:55:27.496Z,5.70
2017-11-21T17:57:55.581Z,5.70
2017-11-21T18:00:24.432Z,5.70
2017-11-21T18:02:52.524Z,5.70
2017-11-21T18:05:21.369Z,5.70
2017-11-21T18:07:49.451Z,5.60
2017-11-21T18:10:17.515Z,5.60
2017-11-21T18:12:45.605Z,5.60
2017-11-21T18:15:13.688Z,5.60
2017-11-21T18:17:41.767Z,5.60
2017-11-21T18:20:10.616Z,5.60
2017-11-21T18:22:38.712Z,5.60
2017-11-21T18:25:06.788Z,5.60
2017-11-21T18:27:34.879Z,5.70
2017-11-21T18:30:03.715Z,5.50
2017-11-21T18:32:31.805Z,5.40
2017-11-21T18:34:59.889Z,5.40
2017-11-21T18:37:27.985Z,5.40
2017-11-21T18:39:56.830Z,5.40
2017-11-21T18:42:24.915Z,5.40
2017-11-21T18:44:53.006Z,5.40
2017-11-21T18:47:21.856Z,5.30
2017-11-21T18:49:49.939Z,5.30
2017-11-21T18:52:18.153Z,5.30
2017-11-21T18:54:46.233Z,5.20
2017-11-21T18:57:14.314Z,5.10
2017-11-21T18:59:42.405Z,5.10
2017-11-21T19:02:10.485Z,5.20
2017-11-21T19:04:38.567Z,5.20
2017-11-21T19:07:06.650Z,5.20
2017-11-21T19:09:35.492Z,5.30
2017-11-21T19:12:03.579Z,5.30
2017-11-21T19:14:31.667Z,5.30
2017-11-21T19:16:59.752Z,5.40
2017-11-21T19:19:28.602Z,5.40
2017-11-21T19:21:57.448Z,5.40
2017-11-21T19:24:25.535Z,5.40
2017-11-21T19:26:53.622Z,5.40
2017-11-21T19:29:21.710Z,5.40
2017-11-21T19:31:49.791Z,5.50
2017-11-21T19:34:17.867Z,5.50
2017-11-21T19:36:45.968Z,5.50
2017-11-21T19:39:14.056Z,5.50
2017-11-21T19:41:42.139Z,5.60
2017-11-21T19:44:10.216Z,5.60
2017-11-21T19:46:38.306Z,5.60
2017-11-21T19:49:06.389Z,5.60
2017-11-21T19:51:34.476Z,5.60
2017-11-21T19:54:03.330Z,5.60
2017-11-21T19:56:31.412Z,5.60
2017-11-21T19:58:59.500Z,5.70
2017-11-21T20:01:28.357Z,5.70
2017-11-21T20:03:56.443Z,5.70
2017-11-21T20:06:24.524Z,5.70
2017-11-21T20:08:53.384Z,5.70
2017-11-21T20:11:21.457Z,5.70
2017-11-21T20:13:49.536Z,5.70
2017-11-21T20:16:17.615Z,5.70
2017-11-21T20:18:45.700Z,5.80
2017-11-21T20:21:14.545Z,5.80
2017-11-21T20:23:42.628Z,5.80
2017-11-21T20:26:10.719Z,5.90
2017-11-21T20:28:38.807Z,6.00
2017-11-21T20:31:06.893Z,6.00
2017-11-21T20:33:34.976Z,6.10
2017-11-21T20:36:03.066Z,6.10
2017-11-21T20:38:31.140Z,6.10
2017-11-21T20:40:59.287Z,6.20
2017-11-21T20:43:27.351Z,6.20
2017-11-21T20:45:55.438Z,6.30
2017-11-21T20:48:23.529Z,6.30
2017-11-21T20:50:51.599Z,6.20
2017-11-21T20:53:19.684Z,6.30
2017-11-21T20:55:47.757Z,6.30
2017-11-21T20:58:15.890Z,6.30
2017-11-21T21:00:43.969Z,6.30
2017-11-21T21:03:12.059Z,6.30
2017-11-21T21:05:40.145Z,6.40
2017-11-21T21:08:08.266Z,6.40
2017-11-21T21:10:36.340Z,6.30
2017-11-21T21:13:04.437Z,6.40
2017-11-21T21:15:32.517Z,6.40
2017-11-21T21:18:00.651Z,6.40
2017-11-21T21:20:28.715Z,6.50
2017-11-21T21:22:56.846Z,6.50
2017-11-21T21:25:24.920Z,6.50
2017-11-21T21:28:00.587Z,6.50
2017-11-21T21:30:28.675Z,6.50
2017-11-21T21:32:56.760Z,6.40
2017-11-21T21:35:24.857Z,6.50
2017-11-21T21:37:52.987Z,6.50
2017-11-21T21:40:21.048Z,6.50
2017-11-21T21:42:49.139Z,6.50
2017-11-21T21:45:17.217Z,6.60
2017-11-21T21:47:45.304Z,6.60
2017-11-21T21:50:13.398Z,6.60
2017-11-21T21:52:42.244Z,6.50
2017-11-21T21:55:10.325Z,6.50
2017-11-21T21:57:38.404Z,6.60
2017-11-21T22:00:06.487Z,6.50
2017-11-21T22:02:34.577Z,6.50
2017-11-21T22:05:03.412Z,6.50
2017-11-21T22:07:31.501Z,6.50
2017-11-21T22:09:59.587Z,6.50
2017-11-21T22:12:27.668Z,6.50
2017-11-21T22:14:56.520Z,6.50
2017-11-21T22:17:24.599Z,6.50
2017-11-21T22:19:52.695Z,6.50
2017-11-21T22:22:21.540Z,6.40
2017-11-21T22:24:49.627Z,6.40
2017-11-21T22:27:17.712Z,6.50
2017-11-21T22:29:45.797Z,6.50
2017-11-21T22:32:14.650Z,6.40
2017-11-21T22:34:42.728Z,6.40
2017-11-21T22:37:10.818Z,6.50
2017-11-21T22:39:38.896Z,6.50
2017-11-21T22:42:07.764Z,6.50
2017-11-21T22:44:35.831Z,6.50
2017-11-21T22:47:03.927Z,6.50
2017-11-21T22:49:32.767Z,6.50
2017-11-21T22:52:00.856Z,6.50
2017-11-21T22:54:28.946Z,6.50
2017-11-21T22:56:57.062Z,6.50
2017-11-21T22:59:25.160Z,6.60
2017-11-21T23:01:55.544Z,6.50
2017-11-21T23:04:23.684Z,6.50
2017-11-21T23:06:51.843Z,6.50
2017-11-21T23:09:20.980Z,6.50
2017-11-21T23:11:49.079Z,6.50
2017-11-21T23:14:17.213Z,6.50
2017-11-21T23:16:45.311Z,6.50
2017-11-21T23:19:13.401Z,6.40
2017-11-21T23:21:41.488Z,6.50
2017-11-21T23:24:09.663Z,6.50
2017-11-21T23:26:37.753Z,6.50
2017-11-21T23:29:05.897Z,6.50
2017-11-21T23:31:33.985Z,6.50
2017-11-21T23:34:02.973Z,6.50
2017-11-21T23:36:31.061Z,6.40
2017-11-21T23:38:59.905Z,6.40
2017-11-21T23:41:28.016Z,6.40
2017-11-21T23:43:56.872Z,6.50
2017-11-21T23:46:24.952Z,6.50
2017-11-21T23:48:53.232Z,6.50
2017-11-21T23:51:21.313Z,6.40
2017-11-21T23:53:50.167Z,6.40
2017-11-21T23:56:18.254Z,6.40
2017-11-21T23:58:46.410Z,6.40
